createdAt,value
2018-09-19T00:00:55.483Z,100113.16
2018-09-19T00:05:58.941Z,100112.59
2018-09-19T00:11:02.284Z,100126.61
2018-09-19T00:16:05.632Z,100120.32
2018-09-19T00:21:08.985Z,100126.50
2018-09-19T00:26:12.367Z,100132.17
2018-09-19T00:31:15.682Z,100141.35
2018-09-19T00:36:19.014Z,100145.90
2018-09-19T00:41:22.416Z,100150.41
2018-09-19T00:46:25.854Z,100154.33
2018-09-19T00:51:29.244Z,100156.48
2018-09-19T00:56:32.582Z,100155.98
2018-09-19T01:01:35.930Z,100160.00
2018-09-19T01:06:39.298Z,100175.12
2018-09-19T01:11:42.585Z,100184.03
2018-09-19T01:16:45.886Z,100182.91
2018-09-19T01:21:49.223Z,100182.84
2018-09-19T01:26:52.536Z,100192.77
2018-09-19T01:31:55.912Z,100208.86
2018-09-19T01:36:59.225Z,100208.17
2018-09-19T01:42:02.519Z,100217.17
2018-09-19T01:47:05.818Z,100215.74
2018-09-19T01:52:09.155Z,100230.60
2018-09-19T01:57:12.456Z,100231.02
2018-09-19T02:02:15.779Z,100228.79
2018-09-19T02:07:19.152Z,100241.94
2018-09-19T02:12:22.478Z,100241.08
2018-09-19T02:17:25.812Z,100241.56
2018-09-19T02:22:29.178Z,100250.56
2018-09-19T02:27:32.487Z,100262.62
2018-09-19T02:32:35.797Z,100267.30
2018-09-19T02:37:39.086Z,100271.70
2018-09-19T02:42:42.497Z,100277.59
2018-09-19T02:47:45.806Z,100276.00
2018-09-19T02:52:53.283Z,100283.37
2018-09-19T02:57:56.600Z,100278.92
2018-09-19T03:02:59.931Z,100280.17
2018-09-19T03:08:03.266Z,100283.61
2018-09-19T03:13:06.592Z,100282.10
2018-09-19T03:18:09.959Z,100286.14
2018-09-19T03:23:13.265Z,100291.70
2018-09-19T03:28:16.571Z,100299.36
2018-09-19T03:33:19.922Z,100316.40
2018-09-19T03:38:23.276Z,100313.59
2018-09-19T03:43:26.588Z,100313.81
2018-09-19T03:48:29.913Z,100327.19
2018-09-19T03:53:33.255Z,100323.69
2018-09-19T03:58:36.592Z,100331.41
2018-09-19T04:03:39.904Z,100340.19
2018-09-19T04:08:43.306Z,100353.17
2018-09-19T04:13:46.653Z,100351.50
2018-09-19T04:18:49.956Z,100348.69
2018-09-19T04:23:53.264Z,100354.93
2018-09-19T04:28:56.595Z,100362.19
2018-09-19T04:33:59.933Z,100375.86
2018-09-19T04:39:03.829Z,100372.11
2018-09-19T04:44:07.966Z,100377.90
2018-09-19T04:49:11.295Z,100377.04
2018-09-19T04:54:14.598Z,100379.94
2018-09-19T04:59:17.928Z,100381.69
2018-09-19T05:04:21.233Z,100399.24
2018-09-19T05:09:24.560Z,100401.94
2018-09-19T05:14:28.699Z,100407.02
2018-09-19T05:19:32.046Z,100419.05
2018-09-19T05:24:35.365Z,100413.75
2018-09-19T05:29:38.662Z,100426.63
2018-09-19T05:34:41.982Z,100444.39
2018-09-19T05:39:45.303Z,100438.44
2018-09-19T05:44:48.642Z,100441.53
2018-09-19T05:49:51.944Z,100455.74
2018-09-19T05:54:57.104Z,100449.75
2018-09-19T06:00:00.415Z,100464.39
2018-09-19T06:05:03.791Z,100464.72
2018-09-19T06:10:07.605Z,100471.17
2018-09-19T06:15:11.750Z,100477.20
2018-09-19T06:20:15.086Z,100481.34
2018-09-19T06:25:18.410Z,100489.42
2018-09-19T06:30:21.712Z,100499.31
2018-09-19T06:35:25.063Z,100502.36
2018-09-19T06:40:28.417Z,100507.22
2018-09-19T06:45:31.814Z,100512.89
2018-09-19T06:50:35.067Z,100521.06
2018-09-19T06:55:38.362Z,100529.80
2018-09-19T07:00:41.693Z,100549.88
2018-09-19T07:05:45.048Z,100556.20
2018-09-19T07:10:48.349Z,100550.38
2018-09-19T07:15:51.656Z,100556.86
2018-09-19T07:20:54.978Z,100571.19
2018-09-19T07:25:58.283Z,100573.17
2018-09-19T07:31:01.652Z,100578.59
2018-09-19T07:36:04.946Z,100579.83
2018-09-19T07:41:08.255Z,100572.88
2018-09-19T07:46:11.566Z,100572.52
2018-09-19T07:51:14.861Z,100584.59
2018-09-19T07:56:18.179Z,100583.94
2018-09-19T08:01:21.558Z,100587.62
2018-09-19T08:06:24.872Z,100592.68
2018-09-19T08:11:28.199Z,100590.80
2018-09-19T08:16:31.520Z,100585.98
2018-09-19T08:21:34.852Z,100586.72
2018-09-19T08:26:38.166Z,100587.88
2018-09-19T08:31:41.482Z,100589.11
2018-09-19T08:36:44.807Z,100573.98
2018-09-19T08:41:48.145Z,100580.81
2018-09-19T08:46:51.461Z,100577.84
2018-09-19T08:51:54.770Z,100577.27
2018-09-19T08:56:58.158Z,100571.02
2018-09-19T09:02:01.470Z,100573.02
2018-09-19T09:07:04.813Z,100573.66
2018-09-19T09:12:08.218Z,100567.22
2018-09-19T09:17:11.526Z,100568.79
2018-09-19T09:22:14.869Z,100572.27
2018-09-19T09:32:20.654Z,100555.56
2018-09-19T09:37:23.991Z,100562.77
2018-09-19T09:42:27.329Z,100567.24
2018-09-19T09:47:30.670Z,100558.48
2018-09-19T09:52:33.987Z,100556.11
2018-09-19T09:57:37.305Z,100541.02
2018-09-19T10:02:40.615Z,100528.87
2018-09-19T10:07:43.939Z,100525.95
2018-09-19T10:12:47.286Z,100516.79
2018-09-19T10:17:50.630Z,100507.06
2018-09-19T10:22:54.538Z,100501.94
2018-09-19T10:27:57.853Z,100508.72
2018-09-19T10:33:01.214Z,100498.91
2018-09-19T10:38:04.612Z,100494.00
2018-09-19T10:43:07.939Z,100493.17
2018-09-19T10:48:11.303Z,100501.30
2018-09-19T10:53:14.637Z,100492.30
2018-09-19T10:58:17.959Z,100490.58
2018-09-19T11:03:21.392Z,100483.38
2018-09-19T11:08:24.714Z,100478.77
2018-09-19T11:13:28.024Z,100461.39
2018-09-19T11:18:32.463Z,100469.11
2018-09-19T11:23:35.976Z,100466.39
2018-09-19T11:28:39.350Z,100461.84
2018-09-19T11:33:42.698Z,100458.17
2018-09-19T11:38:46.002Z,100462.48
2018-09-19T11:43:49.299Z,100459.11
2018-09-19T11:48:52.674Z,100448.31
2018-09-19T11:53:56.014Z,100445.52
2018-09-19T11:58:59.356Z,100430.74
2018-09-19T12:04:02.705Z,100429.27
2018-09-19T12:09:09.093Z,100417.38
2018-09-19T12:14:12.463Z,100412.81
2018-09-19T12:19:15.818Z,100408.25
2018-09-19T12:24:19.146Z,100394.73
2018-09-19T12:29:22.509Z,100383.39
2018-09-19T12:34:25.815Z,100378.92
2018-09-19T12:39:29.271Z,100366.02
2018-09-19T12:44:32.537Z,100363.03
2018-09-19T12:49:35.883Z,100363.54
2018-09-19T12:54:39.195Z,100361.89
2018-09-19T12:59:42.540Z,100350.85
2018-09-19T13:04:45.854Z,100348.05
2018-09-19T13:09:49.183Z,100345.89
2018-09-19T13:14:52.490Z,100359.16
2018-09-19T13:19:55.832Z,100349.63
2018-09-19T13:24:59.169Z,100342.27
2018-09-19T13:30:02.476Z,100336.14
2018-09-19T13:35:05.814Z,100329.91
2018-09-19T13:40:09.172Z,100324.50
2018-09-19T13:45:12.467Z,100315.37
2018-09-19T13:50:54.170Z,100314.34
2018-09-19T13:55:57.510Z,100294.03
2018-09-19T14:01:07.496Z,100299.10
2018-09-19T14:06:10.933Z,100292.45
2018-09-19T14:11:14.344Z,100288.14
2018-09-19T14:16:17.724Z,100304.73
2018-09-19T14:21:21.065Z,100292.36
2018-09-19T14:26:36.429Z,100298.06
2018-09-19T14:31:39.776Z,100286.48
2018-09-19T14:36:43.313Z,100282.58
2018-09-19T14:41:46.710Z,100293.76
2018-09-19T14:46:50.121Z,100286.95
2018-09-19T14:51:53.422Z,100281.63
2018-09-19T14:56:56.721Z,100276.44
2018-09-19T15:02:00.342Z,100271.37
2018-09-19T15:07:03.842Z,100276.66
2018-09-19T15:12:07.941Z,100272.20
2018-09-19T15:17:11.474Z,100266.06
2018-09-19T15:22:15.176Z,100259.35
2018-09-19T15:27:18.616Z,100260.30
2018-09-19T15:32:22.180Z,100265.72
2018-09-19T15:37:26.086Z,100271.08
2018-09-19T15:42:29.569Z,100276.25
2018-09-19T15:47:33.016Z,100269.48
2018-09-19T15:52:36.404Z,100271.92
2018-09-19T15:57:39.758Z,100277.28
2018-09-19T16:02:43.087Z,100281.45
2018-09-19T16:07:46.420Z,100282.47
2018-09-19T16:12:49.847Z,100287.30
2018-09-19T16:17:53.249Z,100289.88
2018-09-19T16:22:57.693Z,100283.16
2018-09-19T16:28:01.050Z,100288.14
2018-09-19T16:33:04.395Z,100296.42
2018-09-19T16:38:07.831Z,100293.36
2018-09-19T16:43:11.307Z,100288.22
2018-09-19T16:48:14.664Z,100294.05
2018-09-19T16:53:18.000Z,100300.28
2018-09-19T16:58:21.403Z,100300.50
2018-09-19T17:03:24.759Z,100297.95
2018-09-19T17:08:28.116Z,100300.27
2018-09-19T17:13:31.675Z,100302.58
2018-09-19T17:18:35.082Z,100299.58
2018-09-19T17:23:39.462Z,100304.43
2018-09-19T17:28:44.371Z,100309.58
2018-09-19T17:33:47.979Z,100307.29
2018-09-19T17:38:51.664Z,100311.26
2018-09-19T17:43:55.124Z,100312.72
2018-09-19T17:48:58.881Z,100322.92
2018-09-19T17:54:02.795Z,100327.63
2018-09-19T17:59:06.141Z,100328.03
2018-09-19T18:04:09.687Z,100331.11
2018-09-19T18:09:13.976Z,100335.27
2018-09-19T18:14:18.268Z,100330.77
2018-09-19T18:19:23.515Z,100334.11
2018-09-19T18:24:27.503Z,100332.07
2018-09-19T18:29:31.867Z,100341.55
2018-09-19T18:34:36.203Z,100334.86
2018-09-19T18:39:40.119Z,100343.60
2018-09-19T18:44:43.687Z,100344.19
2018-09-19T18:49:47.416Z,100346.45
2018-09-19T18:54:51.295Z,100346.80
2018-09-19T18:59:54.660Z,100347.38
2018-09-19T19:04:58.148Z,100351.72
2018-09-19T19:10:02.021Z,100360.16
2018-09-19T19:15:05.469Z,100355.83
2018-09-19T19:20:09.639Z,100349.86
2018-09-19T19:25:13.412Z,100353.70
2018-09-19T19:30:16.994Z,100362.74
2018-09-19T19:35:20.292Z,100368.19
2018-09-19T19:40:23.973Z,100355.17
2018-09-19T19:45:27.319Z,100371.76
2018-09-19T19:50:30.782Z,100380.72
2018-09-19T19:55:34.186Z,100380.70
2018-09-19T20:00:37.516Z,100374.47
2018-09-19T20:05:40.864Z,100379.67
2018-09-19T20:10:44.200Z,100378.31
2018-09-19T20:15:47.483Z,100378.08
2018-09-19T20:20:50.831Z,100377.56
2018-09-19T20:25:54.238Z,100383.53
2018-09-19T20:30:57.903Z,100390.34
2018-09-19T20:36:01.295Z,100383.55
2018-09-19T20:41:04.672Z,100389.25
2018-09-19T20:46:08.219Z,100384.92
2018-09-19T20:51:11.615Z,100396.61
2018-09-19T20:56:14.921Z,100390.07
2018-09-19T21:01:18.279Z,100393.86
2018-09-19T21:06:21.627Z,100388.18
2018-09-19T21:11:25.102Z,100393.32
2018-09-19T21:16:28.572Z,100399.57
2018-09-19T21:21:32.008Z,100402.83
2018-09-19T21:26:35.402Z,100401.47
2018-09-19T21:31:38.735Z,100396.31
2018-09-19T21:36:42.037Z,100399.55
2018-09-19T21:41:45.369Z,100396.57
2018-09-19T21:46:48.779Z,100398.46
2018-09-19T21:51:52.170Z,100394.92
2018-09-19T21:56:55.543Z,100405.77
2018-09-19T22:02:00.258Z,100404.67
2018-09-19T22:07:03.581Z,100400.08
2018-09-19T22:12:09.583Z,100411.98
2018-09-19T22:17:13.007Z,100400.57
2018-09-19T22:22:16.415Z,100410.04
2018-09-19T22:27:19.749Z,100405.68
2018-09-19T22:32:23.194Z,100402.44
2018-09-19T22:37:26.629Z,100396.75
2018-09-19T22:42:30.039Z,100400.79
2018-09-19T22:47:33.388Z,100399.41
2018-09-19T22:52:36.766Z,100399.96
2018-09-19T22:57:40.078Z,100398.06
2018-09-19T23:02:43.447Z,100396.69
2018-09-19T23:07:46.743Z,100397.78
2018-09-19T23:12:50.039Z,100408.31
2018-09-19T23:17:53.362Z,100405.06
2018-09-19T23:22:56.657Z,100403.14
2018-09-19T23:27:59.959Z,100392.56
2018-09-19T23:33:03.287Z,100393.34
2018-09-19T23:38:06.591Z,100393.34
2018-09-19T23:43:09.897Z,100396.05
2018-09-19T23:48:13.202Z,100399.82
2018-09-19T23:53:16.491Z,100404.94
2018-09-19T23:58:19.783Z,100403.55
